createdAt,value
2018-12-29T00:00:20.047Z,18.23
2018-12-29T00:01:00.771Z,18.17
2018-12-29T00:01:41.588Z,18.27
2018-12-29T00:02:22.366Z,18.23
2018-12-29T00:03:03.199Z,18.23
2018-12-29T00:03:43.933Z,18.23
2018-12-29T00:04:24.652Z,18.25
2018-12-29T00:05:05.495Z,18.23
2018-12-29T00:05:46.249Z,18.23
2018-12-29T00:06:26.985Z,18.21
2018-12-29T00:07:07.688Z,18.18
2018-12-29T00:07:48.401Z,18.26
2018-12-29T00:08:29.186Z,18.25
2018-12-29T00:09:09.925Z,18.18
2018-12-29T00:09:50.609Z,18.23
2018-12-29T00:10:31.418Z,18.26
2018-12-29T00:11:12.204Z,18.23
2018-12-29T00:11:53.015Z,18.18
2018-12-29T00:12:33.745Z,18.2
2018-12-29T00:13:14.487Z,18.18
2018-12-29T00:13:55.174Z,18.23
2018-12-29T00:14:35.948Z,18.25
2018-12-29T00:15:16.714Z,18.25
2018-12-29T00:15:57.476Z,18.25
2018-12-29T00:16:38.214Z,18.2
2018-12-29T00:17:18.923Z,18.2
2018-12-29T00:17:59.780Z,18.2
2018-12-29T00:18:40.530Z,18.18
2018-12-29T00:19:21.276Z,18.23
2018-12-29T00:20:02.028Z,18.2
2018-12-29T00:20:42.743Z,18.2
2018-12-29T00:21:23.529Z,18.23
2018-12-29T00:22:04.297Z,18.23
2018-12-29T00:22:44.991Z,18.2
2018-12-29T00:23:25.787Z,18.25
2018-12-29T00:24:06.558Z,18.21
2018-12-29T00:24:47.353Z,18.27
2018-12-29T00:25:28.103Z,18.14
2018-12-29T00:26:08.805Z,18.23
2018-12-29T00:26:49.601Z,18.17
2018-12-29T00:27:30.356Z,18.25
2018-12-29T00:28:11.113Z,18.29
2018-12-29T00:28:51.807Z,18.23
2018-12-29T00:29:32.579Z,18.17
2018-12-29T00:30:13.377Z,18.23
2018-12-29T00:30:54.188Z,18.27
2018-12-29T00:31:34.962Z,18.25
2018-12-29T00:32:15.674Z,18.17
2018-12-29T00:32:56.370Z,18.18
2018-12-29T00:33:37.111Z,18.26
2018-12-29T00:34:17.939Z,18.14
2018-12-29T00:34:58.732Z,18.2
2018-12-29T00:35:39.463Z,18.17
2018-12-29T00:36:20.290Z,18.21
2018-12-29T00:37:01.020Z,18.17
2018-12-29T00:37:41.883Z,18.18
2018-12-29T00:38:22.657Z,18.15
2018-12-29T00:39:03.339Z,18.23
2018-12-29T00:39:44.153Z,18.2
2018-12-29T00:40:24.902Z,18.14
2018-12-29T00:41:05.606Z,18.23
2018-12-29T00:41:46.335Z,18.25
2018-12-29T00:42:27.076Z,18.17
2018-12-29T00:43:07.915Z,18.17
2018-12-29T00:43:48.626Z,18.14
2018-12-29T00:44:29.375Z,18.14
2018-12-29T00:45:10.209Z,18.15
2018-12-29T00:45:51.044Z,18.15
2018-12-29T00:46:31.846Z,18.1
2018-12-29T00:47:12.562Z,18.11
2018-12-29T00:47:53.262Z,18.18
2018-12-29T00:48:33.991Z,18.15
2018-12-29T00:49:14.787Z,18.12
2018-12-29T00:49:55.538Z,18.14
2018-12-29T00:50:36.487Z,18.11
2018-12-29T00:51:17.201Z,18.14
2018-12-29T00:51:57.935Z,18.08
2018-12-29T00:52:38.809Z,18.11
2018-12-29T00:53:19.575Z,18.11
2018-12-29T00:54:00.298Z,18.11
2018-12-29T00:54:40.995Z,18.12
2018-12-29T00:55:21.750Z,18.11
2018-12-29T00:56:02.602Z,18.15
2018-12-29T00:56:43.406Z,18.15
2018-12-29T00:57:24.164Z,18.11
2018-12-29T00:58:04.869Z,18.18
2018-12-29T00:58:45.606Z,18.11
2018-12-29T00:59:26.294Z,18.11
2018-12-29T01:00:07.091Z,18.11
2018-12-29T01:00:47.867Z,18.14
2018-12-29T01:01:28.591Z,18.14
2018-12-29T01:02:09.387Z,18.15
2018-12-29T01:02:50.144Z,18.12
2018-12-29T01:03:30.941Z,18.12
2018-12-29T01:04:11.746Z,18.08
2018-12-29T01:04:52.478Z,18.1
2018-12-29T01:05:33.218Z,18.15
2018-12-29T01:06:13.935Z,18.1
2018-12-29T01:06:54.759Z,18.11
2018-12-29T01:07:35.524Z,18.15
2018-12-29T01:08:16.332Z,18.07
2018-12-29T01:08:57.047Z,18.14
2018-12-29T01:09:37.758Z,18.12
2018-12-29T01:10:18.575Z,18.12
2018-12-29T01:10:59.338Z,18.07
2018-12-29T01:11:40.045Z,18.1
2018-12-29T01:12:20.792Z,18.05
2018-12-29T01:13:01.498Z,18.07
2018-12-29T01:13:42.332Z,18.11
2018-12-29T01:14:23.074Z,18.14
2018-12-29T01:15:09.782Z,18.1
2018-12-29T01:15:44.601Z,18.15
2018-12-29T01:16:25.441Z,18.14
2018-12-29T01:17:06.198Z,18.03
2018-12-29T01:17:47.008Z,18.07
2018-12-29T01:18:27.822Z,18.05
2018-12-29T01:19:08.623Z,18.11
2018-12-29T01:19:49.387Z,18.05
2018-12-29T01:20:30.124Z,18.07
2018-12-29T01:21:10.907Z,18.14
2018-12-29T01:21:52.467Z,18.05
2018-12-29T01:22:33.260Z,18.12
2018-12-29T01:23:14.082Z,18.1
2018-12-29T01:23:54.813Z,18.11
2018-12-29T01:24:35.553Z,18.1
2018-12-29T01:25:16.230Z,18.11
2018-12-29T01:25:56.905Z,18.03
2018-12-29T01:26:37.729Z,18
2018-12-29T01:27:18.464Z,18.11
2018-12-29T01:27:59.203Z,18.11
2018-12-29T01:28:40.099Z,18.1
2018-12-29T01:29:20.902Z,18.02
2018-12-29T01:30:01.682Z,18.1
2018-12-29T01:30:42.451Z,18.11
2018-12-29T01:31:23.151Z,18.12
2018-12-29T01:32:03.924Z,18.05
2018-12-29T01:32:44.630Z,18.08
2018-12-29T01:33:25.503Z,18.11
2018-12-29T01:34:06.271Z,18.03
2018-12-29T01:34:47.104Z,18.07
2018-12-29T01:35:27.872Z,18.08
2018-12-29T01:36:08.663Z,18.08
2018-12-29T01:36:49.495Z,18.03
2018-12-29T01:37:30.201Z,18.07
2018-12-29T01:38:10.943Z,18.03
2018-12-29T01:38:51.662Z,18.08
2018-12-29T01:39:32.414Z,18.1
2018-12-29T01:40:13.216Z,18.02
2018-12-29T01:40:54.021Z,18.03
2018-12-29T01:41:34.795Z,17.99
2018-12-29T01:42:15.559Z,18.03
2018-12-29T01:42:56.321Z,18.05
2018-12-29T01:43:37.044Z,18.05
2018-12-29T01:44:17.880Z,18.03
2018-12-29T01:44:58.595Z,18.12
2018-12-29T01:45:39.339Z,18.14
2018-12-29T01:46:20.162Z,18.11
2018-12-29T01:47:00.955Z,18.05
2018-12-29T01:47:41.891Z,18.1
2018-12-29T01:48:22.541Z,18.07
2018-12-29T01:49:03.294Z,18
2018-12-29T01:49:44.079Z,18.02
2018-12-29T01:50:24.765Z,18.05
2018-12-29T01:51:05.481Z,18.05
2018-12-29T01:51:46.184Z,18.12
2018-12-29T01:52:26.901Z,18.08
2018-12-29T01:53:07.760Z,18.07
2018-12-29T01:53:48.482Z,18.07
2018-12-29T01:54:29.262Z,18.07
2018-12-29T01:55:10.085Z,18.07
2018-12-29T01:55:50.922Z,18.07
2018-12-29T01:56:31.725Z,18.03
2018-12-29T01:57:12.489Z,18
2018-12-29T01:57:53.217Z,18.05
2018-12-29T01:58:33.935Z,18.07
2018-12-29T01:59:14.745Z,17.96
2018-12-29T01:59:55.568Z,18.05
2018-12-29T02:00:36.370Z,18.03
2018-12-29T02:01:17.080Z,18.08
2018-12-29T02:01:57.871Z,17.97
2018-12-29T02:02:38.741Z,17.99
2018-12-29T02:03:19.467Z,17.95
2018-12-29T02:04:00.167Z,18.05
2018-12-29T02:04:40.901Z,18
2018-12-29T02:05:21.660Z,18
2018-12-29T02:06:02.505Z,18.02
2018-12-29T02:06:43.248Z,18
2018-12-29T02:07:24.030Z,17.96
2018-12-29T02:08:04.734Z,17.99
2018-12-29T02:08:45.443Z,17.99
2018-12-29T02:09:26.136Z,17.99
2018-12-29T02:10:06.911Z,18.07
2018-12-29T02:10:47.688Z,18.03
2018-12-29T02:11:28.472Z,17.97
2018-12-29T02:12:09.209Z,18
2018-12-29T02:12:50.020Z,18.03
2018-12-29T02:13:30.878Z,17.92
2018-12-29T02:14:11.624Z,18.07
2018-12-29T02:14:52.377Z,17.96
2018-12-29T02:15:33.073Z,18.05
2018-12-29T02:16:13.801Z,17.99
2018-12-29T02:16:54.628Z,17.95
2018-12-29T02:17:35.418Z,17.96
2018-12-29T02:18:16.206Z,18.03
2018-12-29T02:18:56.931Z,17.92
2018-12-29T02:19:37.729Z,18
2018-12-29T02:20:18.557Z,17.95
2018-12-29T02:20:59.248Z,17.97
2018-12-29T02:21:40.027Z,17.99
2018-12-29T02:22:20.767Z,18
2018-12-29T02:23:01.531Z,17.99
2018-12-29T02:23:42.361Z,17.96
2018-12-29T02:24:23.115Z,18
2018-12-29T02:25:03.866Z,17.99
2018-12-29T02:25:44.648Z,18.02
2018-12-29T02:26:25.464Z,17.99
2018-12-29T02:27:06.253Z,17.9
2018-12-29T02:27:46.959Z,17.93
2018-12-29T02:28:27.799Z,18.02
2018-12-29T02:29:08.589Z,18
2018-12-29T02:29:49.303Z,17.92
2018-12-29T02:30:29.996Z,17.97
2018-12-29T02:31:10.715Z,17.99
2018-12-29T02:31:51.518Z,17.96
2018-12-29T02:32:32.361Z,17.99
2018-12-29T02:33:13.162Z,18.05
2018-12-29T02:33:53.857Z,17.92
2018-12-29T02:34:34.577Z,17.92
2018-12-29T02:35:15.279Z,17.87
2018-12-29T02:35:56.070Z,17.89
2018-12-29T02:36:36.946Z,18.02
2018-12-29T02:37:17.707Z,17.93
2018-12-29T02:37:58.428Z,17.93
2018-12-29T02:38:39.250Z,17.93
2018-12-29T02:39:19.992Z,17.9
2018-12-29T02:40:00.782Z,17.92
2018-12-29T02:40:41.497Z,17.89
2018-12-29T02:41:22.286Z,17.92
2018-12-29T02:42:03.094Z,17.92
2018-12-29T02:42:43.757Z,17.93
2018-12-29T02:43:24.494Z,17.92
2018-12-29T02:44:05.276Z,17.97
2018-12-29T02:44:45.993Z,17.89
2018-12-29T02:45:32.931Z,17.97
2018-12-29T02:46:07.524Z,17.92
2018-12-29T02:46:48.263Z,17.96
2018-12-29T02:47:29.098Z,17.97
2018-12-29T02:48:09.841Z,17.87
2018-12-29T02:48:50.607Z,17.93
2018-12-29T02:49:31.366Z,17.9
2018-12-29T02:50:12.045Z,17.86
2018-12-29T02:50:52.849Z,18.03
2018-12-29T02:51:33.609Z,18
2018-12-29T02:52:14.434Z,17.95
2018-12-29T02:52:55.258Z,17.87
2018-12-29T02:53:35.995Z,17.93
2018-12-29T02:54:16.831Z,17.9
2018-12-29T02:54:57.608Z,17.89
2018-12-29T02:55:38.389Z,17.96
2018-12-29T02:56:19.129Z,17.96
2018-12-29T02:56:59.840Z,17.95
2018-12-29T02:57:40.597Z,17.99
2018-12-29T02:58:21.406Z,17.97
2018-12-29T02:59:02.148Z,17.84
2018-12-29T02:59:42.899Z,17.89
2018-12-29T03:00:23.749Z,17.97
2018-12-29T03:01:04.530Z,17.89
2018-12-29T03:01:45.289Z,17.9
2018-12-29T03:02:26.036Z,17.96
2018-12-29T03:03:06.778Z,17.97
2018-12-29T03:03:47.586Z,17.9
2018-12-29T03:04:28.286Z,17.89
2018-12-29T03:05:08.965Z,17.97
2018-12-29T03:05:49.701Z,17.87
2018-12-29T03:06:30.481Z,17.93
2018-12-29T03:07:11.323Z,17.92
2018-12-29T03:07:52.168Z,17.93
2018-12-29T03:08:32.910Z,17.95
2018-12-29T03:09:13.573Z,17.9
2018-12-29T03:09:54.289Z,17.84
2018-12-29T03:10:35.057Z,17.95
2018-12-29T03:11:15.810Z,17.82
2018-12-29T03:11:56.637Z,17.92
2018-12-29T03:12:37.304Z,17.81
2018-12-29T03:13:18.075Z,17.89
2018-12-29T03:13:58.949Z,17.95
2018-12-29T03:14:39.879Z,17.87
2018-12-29T03:15:20.599Z,17.86
2018-12-29T03:16:01.344Z,17.97
2018-12-29T03:16:42.055Z,17.92
2018-12-29T03:17:22.804Z,17.92
2018-12-29T03:18:03.630Z,17.93
2018-12-29T03:18:44.565Z,17.87
2018-12-29T03:19:25.264Z,17.86
2018-12-29T03:20:06.140Z,17.84
2018-12-29T03:20:46.985Z,17.87
2018-12-29T03:21:27.785Z,17.9
2018-12-29T03:22:08.554Z,17.93
2018-12-29T03:22:49.636Z,17.96
2018-12-29T03:23:30.715Z,17.93
2018-12-29T03:24:11.781Z,17.97
2018-12-29T03:24:52.608Z,17.84
2018-12-29T03:25:33.615Z,17.89
2018-12-29T03:26:14.207Z,17.92
2018-12-29T03:26:54.918Z,17.93
2018-12-29T03:27:35.628Z,17.84
2018-12-29T03:28:16.355Z,17.84
2018-12-29T03:28:57.232Z,17.9
2018-12-29T03:29:37.879Z,17.9
2018-12-29T03:30:18.739Z,17.89
2018-12-29T03:30:59.512Z,17.89
2018-12-29T03:31:40.285Z,17.93
2018-12-29T03:32:21.051Z,17.86
2018-12-29T03:33:01.804Z,17.78
2018-12-29T03:33:42.560Z,17.89
2018-12-29T03:34:23.391Z,17.87
2018-12-29T03:35:04.106Z,17.82
2018-12-29T03:35:44.840Z,17.79
2018-12-29T03:36:25.538Z,17.81
2018-12-29T03:37:06.320Z,17.86
2018-12-29T03:37:47.107Z,17.86
2018-12-29T03:38:27.813Z,17.87
2018-12-29T03:39:08.663Z,17.89
2018-12-29T03:39:49.393Z,17.77
2018-12-29T03:40:30.277Z,17.82
2018-12-29T03:41:11.090Z,17.78
2018-12-29T03:41:51.774Z,17.86
2018-12-29T03:42:32.521Z,17.9
2018-12-29T03:43:13.244Z,17.84
2018-12-29T03:43:54.074Z,17.89
2018-12-29T03:44:34.896Z,17.92
2018-12-29T03:45:15.680Z,17.86
2018-12-29T03:45:56.375Z,17.74
2018-12-29T03:46:37.183Z,17.86
2018-12-29T03:47:17.977Z,17.78
2018-12-29T03:47:58.740Z,17.75
2018-12-29T03:48:39.432Z,17.86
2018-12-29T03:49:20.163Z,17.81
2018-12-29T03:50:01.185Z,17.92
2018-12-29T03:50:42.089Z,17.86
2018-12-29T03:51:22.892Z,17.92
2018-12-29T03:52:03.635Z,17.81
2018-12-29T03:52:44.415Z,17.84
2018-12-29T03:53:25.074Z,17.92
2018-12-29T03:54:05.861Z,17.84
2018-12-29T03:54:46.653Z,17.78
2018-12-29T03:55:27.376Z,17.81
2018-12-29T03:56:08.112Z,17.81
2018-12-29T03:56:48.907Z,17.9
2018-12-29T03:57:29.728Z,17.81
2018-12-29T03:58:10.493Z,17.86
2018-12-29T03:58:51.180Z,17.82
2018-12-29T03:59:31.936Z,17.86
2018-12-29T04:00:12.655Z,17.89
2018-12-29T04:00:53.527Z,17.86
2018-12-29T04:01:34.340Z,17.86
2018-12-29T04:02:15.115Z,17.78
2018-12-29T04:02:55.868Z,17.89
2018-12-29T04:03:36.602Z,17.86
2018-12-29T04:04:17.404Z,17.82
2018-12-29T04:04:58.212Z,17.84
2018-12-29T04:05:38.934Z,17.86
2018-12-29T04:06:19.642Z,17.86
2018-12-29T04:07:00.413Z,17.81
2018-12-29T04:07:41.171Z,17.82
2018-12-29T04:08:21.948Z,17.79
2018-12-29T04:09:02.839Z,17.78
2018-12-29T04:09:43.659Z,17.81
2018-12-29T04:10:24.478Z,17.86
2018-12-29T04:11:05.246Z,17.74
2018-12-29T04:11:45.991Z,17.84
2018-12-29T04:12:26.756Z,17.77
2018-12-29T04:13:07.580Z,17.79
2018-12-29T04:13:48.263Z,17.82
2018-12-29T04:14:28.986Z,17.79
2018-12-29T04:15:09.721Z,17.86
2018-12-29T04:15:57.785Z,17.84
2018-12-29T04:16:31.371Z,17.78
2018-12-29T04:17:12.764Z,17.82
2018-12-29T04:17:54.023Z,17.78
2018-12-29T04:18:34.752Z,17.78
2018-12-29T04:19:16.492Z,17.81
2018-12-29T04:19:57.276Z,17.82
2018-12-29T04:20:38.125Z,17.81
2018-12-29T04:21:18.854Z,17.75
2018-12-29T04:21:59.529Z,17.81
2018-12-29T04:22:40.340Z,17.77
2018-12-29T04:23:21.148Z,17.77
2018-12-29T04:24:01.951Z,17.77
2018-12-29T04:24:42.690Z,17.77
2018-12-29T04:25:23.411Z,17.75
2018-12-29T04:26:04.338Z,17.82
2018-12-29T04:26:45.193Z,17.81
2018-12-29T04:27:26.042Z,17.78
2018-12-29T04:28:06.870Z,17.77
2018-12-29T04:28:47.659Z,17.78
2018-12-29T04:29:28.381Z,17.77
2018-12-29T04:30:09.179Z,17.79
2018-12-29T04:30:49.993Z,17.72
2018-12-29T04:31:30.763Z,17.79
2018-12-29T04:32:11.486Z,17.81
2018-12-29T04:32:52.243Z,17.78
2018-12-29T04:33:33.747Z,17.79
2018-12-29T04:34:14.598Z,17.71
2018-12-29T04:34:55.518Z,17.81
2018-12-29T04:35:36.285Z,17.74
2018-12-29T04:36:16.986Z,17.81
2018-12-29T04:36:57.718Z,17.82
2018-12-29T04:37:38.496Z,17.75
2018-12-29T04:38:19.259Z,17.79
2018-12-29T04:38:59.962Z,17.81
2018-12-29T04:39:40.905Z,17.78
2018-12-29T04:40:21.795Z,17.71
2018-12-29T04:41:02.575Z,17.79
2018-12-29T04:41:43.365Z,17.75
2018-12-29T04:42:24.089Z,17.81
2018-12-29T04:43:04.911Z,17.71
2018-12-29T04:43:45.661Z,17.75
2018-12-29T04:44:26.374Z,17.79
2018-12-29T04:45:07.119Z,17.81
2018-12-29T04:45:47.821Z,17.68
2018-12-29T04:46:28.599Z,17.81
2018-12-29T04:47:09.353Z,17.66
2018-12-29T04:47:50.094Z,17.75
2018-12-29T04:48:30.931Z,17.74
2018-12-29T04:49:11.714Z,17.68
2018-12-29T04:49:52.515Z,17.7
2018-12-29T04:50:33.275Z,17.66
2018-12-29T04:51:14.014Z,17.74
2018-12-29T04:51:54.750Z,17.78
2018-12-29T04:52:35.458Z,17.75
2018-12-29T04:53:16.484Z,17.79
2018-12-29T04:53:57.314Z,17.75
2018-12-29T04:54:38.037Z,17.7
2018-12-29T04:55:18.775Z,17.72
2018-12-29T04:55:59.509Z,17.68
2018-12-29T04:56:40.420Z,17.75
2018-12-29T04:57:21.158Z,17.72
2018-12-29T04:58:01.875Z,17.7
2018-12-29T04:58:42.622Z,17.7
2018-12-29T04:59:23.416Z,17.7
2018-12-29T05:00:04.231Z,17.71
2018-12-29T05:00:45.342Z,17.72
2018-12-29T05:01:26.050Z,17.63
2018-12-29T05:02:06.838Z,17.72
2018-12-29T05:02:47.640Z,17.68
2018-12-29T05:03:28.613Z,17.71
2018-12-29T05:04:09.409Z,17.68
2018-12-29T05:04:50.179Z,17.7
2018-12-29T05:05:31.043Z,17.7
2018-12-29T05:06:11.757Z,17.71
2018-12-29T05:06:52.457Z,17.72
2018-12-29T05:07:33.198Z,17.68
2018-12-29T05:08:13.963Z,17.71
2018-12-29T05:08:54.809Z,17.71
2018-12-29T05:09:35.693Z,17.71
2018-12-29T05:10:16.740Z,17.71
2018-12-29T05:10:57.748Z,17.74
2018-12-29T05:11:38.483Z,17.71
2018-12-29T05:12:19.219Z,17.7
2018-12-29T05:13:00.021Z,17.72
2018-12-29T05:13:40.754Z,17.71
2018-12-29T05:14:21.475Z,17.68
2018-12-29T05:15:02.465Z,17.72
2018-12-29T05:15:43.228Z,17.7
2018-12-29T05:16:24.052Z,17.68
2018-12-29T05:17:04.752Z,17.7
2018-12-29T05:17:45.473Z,17.68
2018-12-29T05:18:26.298Z,17.68
2018-12-29T05:19:07.033Z,17.66
2018-12-29T05:19:47.735Z,17.71
2018-12-29T05:20:28.446Z,17.63
2018-12-29T05:21:09.188Z,17.7
2018-12-29T05:21:49.996Z,17.71
2018-12-29T05:22:30.746Z,17.66
2018-12-29T05:23:11.491Z,17.68
2018-12-29T05:23:52.293Z,17.68
2018-12-29T05:24:33.129Z,17.71
2018-12-29T05:25:13.940Z,17.71
2018-12-29T05:25:54.662Z,17.7
2018-12-29T05:26:35.399Z,17.68
2018-12-29T05:27:16.155Z,17.7
2018-12-29T05:27:56.959Z,17.68
2018-12-29T05:28:37.780Z,17.72
2018-12-29T05:29:18.628Z,17.66
2018-12-29T05:29:59.382Z,17.66
2018-12-29T05:30:40.110Z,17.68
2018-12-29T05:31:20.973Z,17.72
2018-12-29T05:32:01.739Z,17.66
2018-12-29T05:32:42.603Z,17.64
2018-12-29T05:33:23.348Z,17.72
2018-12-29T05:34:04.070Z,17.63
2018-12-29T05:34:44.908Z,17.63
2018-12-29T05:35:25.714Z,17.63
2018-12-29T05:36:06.527Z,17.63
2018-12-29T05:36:47.222Z,17.64
2018-12-29T05:37:27.948Z,17.66
2018-12-29T05:38:08.682Z,17.64
2018-12-29T05:38:49.475Z,17.66
2018-12-29T05:39:30.255Z,17.63
2018-12-29T05:40:10.985Z,17.63
2018-12-29T05:40:51.719Z,17.64
2018-12-29T05:41:32.506Z,17.64
2018-12-29T05:42:13.330Z,17.63
2018-12-29T05:42:54.108Z,17.7
2018-12-29T05:43:34.833Z,17.63
2018-12-29T05:44:15.594Z,17.63
2018-12-29T05:44:56.395Z,17.63
2018-12-29T05:45:37.233Z,17.66
2018-12-29T05:46:20.466Z,17.64
2018-12-29T05:46:58.856Z,17.71
2018-12-29T05:47:39.622Z,17.72
2018-12-29T05:48:20.350Z,17.71
2018-12-29T05:49:01.165Z,17.59
2018-12-29T05:49:41.875Z,17.63
2018-12-29T05:50:22.611Z,17.63
2018-12-29T05:51:03.320Z,17.64
2018-12-29T05:51:44.106Z,17.62
2018-12-29T05:52:24.902Z,17.62
2018-12-29T05:53:05.641Z,17.62
2018-12-29T05:53:46.388Z,17.62
2018-12-29T05:54:27.209Z,17.66
2018-12-29T05:55:08.005Z,17.68
2018-12-29T05:55:48.715Z,17.62
2018-12-29T05:56:29.464Z,17.62
2018-12-29T05:57:10.287Z,17.58
2018-12-29T05:57:51.100Z,17.68
2018-12-29T05:58:31.795Z,17.63
2018-12-29T05:59:12.487Z,17.62
2018-12-29T05:59:53.227Z,17.64
2018-12-29T06:00:34.062Z,17.58
2018-12-29T06:01:14.856Z,17.66
2018-12-29T06:01:55.650Z,17.59
2018-12-29T06:02:36.382Z,17.59
2018-12-29T06:03:17.081Z,17.55
2018-12-29T06:03:57.783Z,17.64
2018-12-29T06:04:38.586Z,17.56
2018-12-29T06:05:19.387Z,17.55
2018-12-29T06:06:00.193Z,17.59
2018-12-29T06:06:40.867Z,17.66
2018-12-29T06:07:21.650Z,17.64
2018-12-29T06:08:02.441Z,17.58
2018-12-29T06:08:43.210Z,17.55
2018-12-29T06:09:23.968Z,17.56
2018-12-29T06:10:04.702Z,17.55
2018-12-29T06:10:45.423Z,17.56
2018-12-29T06:11:26.205Z,17.64
2018-12-29T06:12:07.013Z,17.62
2018-12-29T06:12:47.811Z,17.63
2018-12-29T06:13:28.518Z,17.56
2018-12-29T06:14:09.249Z,17.63
2018-12-29T06:14:50.078Z,17.54
2018-12-29T06:15:30.795Z,17.62
2018-12-29T06:16:11.502Z,17.56
2018-12-29T06:16:52.245Z,17.49
2018-12-29T06:17:33.045Z,17.56
2018-12-29T06:18:13.833Z,17.62
2018-12-29T06:18:54.644Z,17.58
2018-12-29T06:19:35.445Z,17.55
2018-12-29T06:20:16.186Z,17.64
2018-12-29T06:20:56.907Z,17.55
2018-12-29T06:21:37.646Z,17.56
2018-12-29T06:22:18.461Z,17.58
2018-12-29T06:22:59.234Z,17.59
2018-12-29T06:23:39.970Z,17.51
2018-12-29T06:24:20.737Z,17.52
2018-12-29T06:25:01.534Z,17.64
2018-12-29T06:25:42.393Z,17.62
2018-12-29T06:26:23.153Z,17.51
2018-12-29T06:27:03.880Z,17.48
2018-12-29T06:27:44.670Z,17.62
2018-12-29T06:28:25.391Z,17.64
2018-12-29T06:29:06.184Z,17.58
2018-12-29T06:29:46.923Z,17.55
2018-12-29T06:30:27.638Z,17.56
2018-12-29T06:31:08.493Z,17.66
2018-12-29T06:31:49.263Z,17.62
2018-12-29T06:32:30.007Z,17.64
2018-12-29T06:33:10.764Z,17.66
2018-12-29T06:33:51.546Z,17.59
2018-12-29T06:34:32.361Z,17.55
2018-12-29T06:35:13.039Z,17.62
2018-12-29T06:35:53.784Z,17.59
2018-12-29T06:36:34.496Z,17.55
2018-12-29T06:37:15.335Z,17.52
2018-12-29T06:37:56.138Z,17.52
2018-12-29T06:38:36.944Z,17.56
2018-12-29T06:39:17.748Z,17.51
2018-12-29T06:39:58.454Z,17.54
2018-12-29T06:40:39.359Z,17.49
2018-12-29T06:41:20.129Z,17.54
2018-12-29T06:42:00.866Z,17.46
2018-12-29T06:42:41.591Z,17.51
2018-12-29T06:43:22.321Z,17.52
2018-12-29T06:44:03.123Z,17.64
2018-12-29T06:44:43.927Z,17.48
2018-12-29T06:45:24.687Z,17.48
2018-12-29T06:46:05.396Z,17.51
2018-12-29T06:46:46.091Z,17.58
2018-12-29T06:47:26.832Z,17.48
2018-12-29T06:48:07.627Z,17.46
2018-12-29T06:48:48.419Z,17.46
2018-12-29T06:49:29.169Z,17.51
2018-12-29T06:50:09.916Z,17.52
2018-12-29T06:50:50.682Z,17.51
2018-12-29T06:51:31.473Z,17.49
2018-12-29T06:52:12.270Z,17.54
2018-12-29T06:52:53.025Z,17.51
2018-12-29T06:53:33.763Z,17.49
2018-12-29T06:54:14.530Z,17.52
2018-12-29T06:54:55.331Z,17.52
2018-12-29T06:55:36.260Z,17.52
2018-12-29T06:56:17.045Z,17.44
2018-12-29T06:56:57.818Z,17.44
2018-12-29T06:57:38.545Z,17.52
2018-12-29T06:58:19.411Z,17.51
2018-12-29T06:59:00.197Z,17.51
2018-12-29T06:59:40.979Z,17.48
2018-12-29T07:00:21.762Z,17.51
2018-12-29T07:01:02.544Z,17.52
2018-12-29T07:01:43.389Z,17.44
2018-12-29T07:02:24.101Z,17.49
2018-12-29T07:03:04.837Z,17.48
2018-12-29T07:03:46.733Z,17.52
2018-12-29T07:04:26.503Z,17.49
2018-12-29T07:05:07.227Z,17.48
2018-12-29T07:05:47.951Z,17.49
2018-12-29T07:06:28.763Z,17.52
2018-12-29T07:07:09.577Z,17.44
2018-12-29T07:07:50.340Z,17.51
2018-12-29T07:08:31.055Z,17.44
2018-12-29T07:09:11.758Z,17.52
2018-12-29T07:09:52.541Z,17.46
2018-12-29T07:10:33.297Z,17.49
2018-12-29T07:11:14.097Z,17.49
2018-12-29T07:11:54.870Z,17.49
2018-12-29T07:12:35.574Z,17.49
2018-12-29T07:13:16.356Z,17.46
2018-12-29T07:13:57.069Z,17.46
2018-12-29T07:14:37.868Z,17.44
2018-12-29T07:15:18.635Z,17.52
2018-12-29T07:15:59.343Z,17.54
2018-12-29T07:16:42.307Z,17.51
2018-12-29T07:17:20.931Z,17.54
2018-12-29T07:18:01.709Z,17.54
2018-12-29T07:18:42.452Z,17.51
2018-12-29T07:19:23.156Z,17.49
2018-12-29T07:20:03.993Z,17.48
2018-12-29T07:20:44.848Z,17.48
2018-12-29T07:21:25.543Z,17.48
2018-12-29T07:22:06.252Z,17.49
2018-12-29T07:22:47.031Z,17.52
2018-12-29T07:23:27.838Z,17.49
2018-12-29T07:24:08.575Z,17.51
2018-12-29T07:24:49.270Z,17.48
2018-12-29T07:25:30.104Z,17.48
2018-12-29T07:26:10.877Z,17.52
2018-12-29T07:26:51.713Z,17.49
2018-12-29T07:27:32.428Z,17.55
2018-12-29T07:28:13.144Z,17.46
2018-12-29T07:28:53.881Z,17.44
2018-12-29T07:29:38.156Z,17.46
2018-12-29T07:30:15.380Z,17.49
2018-12-29T07:30:56.238Z,17.51
2018-12-29T07:31:36.993Z,17.48
2018-12-29T07:32:17.695Z,17.46
2018-12-29T07:32:58.510Z,17.46
2018-12-29T07:33:39.227Z,17.51
2018-12-29T07:34:19.968Z,17.49
2018-12-29T07:35:00.641Z,17.55
2018-12-29T07:35:41.381Z,17.46
2018-12-29T07:36:22.150Z,17.54
2018-12-29T07:37:02.884Z,17.51
2018-12-29T07:37:43.607Z,17.51
2018-12-29T07:38:24.398Z,17.51
2018-12-29T07:39:05.174Z,17.52
2018-12-29T07:39:45.984Z,17.49
2018-12-29T07:40:26.730Z,17.46
2018-12-29T07:41:07.463Z,17.51
2018-12-29T07:41:48.242Z,17.48
2018-12-29T07:42:28.987Z,17.44
2018-12-29T07:43:09.673Z,17.48
2018-12-29T07:43:50.497Z,17.48
2018-12-29T07:44:31.236Z,17.48
2018-12-29T07:45:12.034Z,17.46
2018-12-29T07:45:52.832Z,17.59
2018-12-29T07:46:33.574Z,17.54
2018-12-29T07:47:14.310Z,17.48
2018-12-29T07:47:55.062Z,17.48
2018-12-29T07:48:35.804Z,17.46
2018-12-29T07:49:16.652Z,17.44
2018-12-29T07:49:57.454Z,17.51
2018-12-29T07:50:38.161Z,17.44
2018-12-29T07:51:18.937Z,17.48
2018-12-29T07:51:59.725Z,17.41
2018-12-29T07:52:40.520Z,17.52
2018-12-29T07:53:21.346Z,17.48
2018-12-29T07:54:02.042Z,17.44
2018-12-29T07:54:42.786Z,17.51
2018-12-29T07:55:23.589Z,17.48
2018-12-29T07:56:04.388Z,17.46
2018-12-29T07:56:45.202Z,17.48
2018-12-29T07:57:26.067Z,17.44
2018-12-29T07:58:06.850Z,17.51
2018-12-29T07:58:47.580Z,17.44
2018-12-29T07:59:28.398Z,17.52
2018-12-29T08:00:09.108Z,17.56
2018-12-29T08:00:49.780Z,17.49
2018-12-29T08:01:30.549Z,17.48
2018-12-29T08:02:11.332Z,17.49
2018-12-29T08:02:52.138Z,17.49
2018-12-29T08:03:32.999Z,17.49
2018-12-29T08:04:13.800Z,17.46
2018-12-29T08:04:54.500Z,17.48
2018-12-29T08:05:35.234Z,17.55
2018-12-29T08:06:15.987Z,17.49
2018-12-29T08:06:56.816Z,17.51
2018-12-29T08:07:37.524Z,17.49
2018-12-29T08:08:18.249Z,17.46
2018-12-29T08:08:59.099Z,17.49
2018-12-29T08:09:39.855Z,17.51
2018-12-29T08:10:20.644Z,17.52
2018-12-29T08:11:01.396Z,17.43
2018-12-29T08:11:42.152Z,17.51
2018-12-29T08:12:29.662Z,17.48
2018-12-29T08:13:10.400Z,17.48
2018-12-29T08:13:51.106Z,17.49
2018-12-29T08:14:31.811Z,17.44
2018-12-29T08:15:12.585Z,17.48
2018-12-29T08:15:53.349Z,17.48
2018-12-29T08:16:34.067Z,17.48
2018-12-29T08:17:14.815Z,17.52
2018-12-29T08:17:55.670Z,17.48
2018-12-29T08:18:36.489Z,17.52
2018-12-29T08:19:17.222Z,17.49
2018-12-29T08:19:57.986Z,17.52
2018-12-29T08:20:38.743Z,17.49
2018-12-29T08:21:19.482Z,17.44
2018-12-29T08:22:00.282Z,17.48
2018-12-29T08:22:41.050Z,17.44
2018-12-29T08:23:21.833Z,17.44
2018-12-29T08:24:02.567Z,17.49
2018-12-29T08:24:43.278Z,17.48
2018-12-29T08:25:24.111Z,17.54
2018-12-29T08:26:04.866Z,17.49
2018-12-29T08:26:45.580Z,17.62
2018-12-29T08:27:26.308Z,17.55
2018-12-29T08:28:07.063Z,17.48
2018-12-29T08:28:47.900Z,17.48
2018-12-29T08:29:28.773Z,17.52
2018-12-29T08:30:09.581Z,17.48
2018-12-29T08:30:50.339Z,17.51
2018-12-29T08:31:31.050Z,17.46
2018-12-29T08:32:11.753Z,17.52
2018-12-29T08:32:52.533Z,17.49
2018-12-29T08:33:33.273Z,17.51
2018-12-29T08:34:13.978Z,17.49
2018-12-29T08:34:54.731Z,17.49
2018-12-29T08:35:35.524Z,17.48
2018-12-29T08:36:16.341Z,17.48
2018-12-29T08:36:57.069Z,17.49
2018-12-29T08:37:37.837Z,17.51
2018-12-29T08:38:18.562Z,17.52
2018-12-29T08:38:59.313Z,17.52
2018-12-29T08:39:40.151Z,17.49
2018-12-29T08:40:21.047Z,17.48
2018-12-29T08:41:01.822Z,17.51
2018-12-29T08:41:42.562Z,17.56
2018-12-29T08:42:23.381Z,17.51
2018-12-29T08:43:04.165Z,17.48
2018-12-29T08:43:44.954Z,17.55
2018-12-29T08:44:25.724Z,17.54
2018-12-29T08:45:06.452Z,17.48
2018-12-29T08:45:47.212Z,17.51
2018-12-29T08:46:27.977Z,17.58
2018-12-29T08:47:08.788Z,17.56